sensor_id;sensor_type;location;lat;lon;timestamp;P1;durP1;ratioP1;P2;durP2;ratioP2
4278;SDS011;2153;47.744;10.580;2023-04-25T00:00:09;16.40;;;2.80;;
4278;SDS011;2153;47.744;10.580;2023-04-25T00:02:37;13.33;;;2.80;;
4278;SDS011;2153;47.744;10.580;2023-04-25T00:05:04;18.10;;;2.67;;
4278;SDS011;2153;47.744;10.580;2023-04-25T00:07:33;14.60;;;3.00;;
4278;SDS011;2153;47.744;10.580;2023-04-25T00:10:00;13.30;;;2.40;;
4278;SDS011;2153;47.744;10.580;2023-04-25T00:12:27;13.43;;;2.80;;
4278;SDS011;2153;47.744;10.580;2023-04-25T00:14:54;14.80;;;2.60;;
4278;SDS011;2153;47.744;10.580;2023-04-25T00:17:22;18.90;;;3.00;;
4278;SDS011;2153;47.744;10.580;2023-04-25T00:19:49;14.47;;;2.93;;
4278;SDS011;2153;47.744;10.580;2023-04-25T00:22:16;13.50;;;2.40;;
4278;SDS011;2153;47.744;10.580;2023-04-25T00:24:44;12.73;;;2.83;;
4278;SDS011;2153;47.744;10.580;2023-04-25T00:27:11;19.10;;;3.00;;
4278;SDS011;2153;47.744;10.580;2023-04-25T00:29:38;16.70;;;3.00;;
4278;SDS011;2153;47.744;10.580;2023-04-25T00:32:04;19.33;;;3.20;;
4278;SDS011;2153;47.744;10.580;2023-04-25T00:34:31;16.13;;;3.77;;
4278;SDS011;2153;47.744;10.580;2023-04-25T00:36:58;17.27;;;2.70;;
4278;SDS011;2153;47.744;10.580;2023-04-25T00:39:26;14.23;;;2.60;;
4278;SDS011;2153;47.744;10.580;2023-04-25T00:41:55;17.33;;;2.80;;
4278;SDS011;2153;47.744;10.580;2023-04-25T00:44:21;14.00;;;3.60;;
4278;SDS011;2153;47.744;10.580;2023-04-25T00:46:49;15.30;;;3.03;;
4278;SDS011;2153;47.744;10.580;2023-04-25T00:49:16;18.57;;;3.03;;
4278;SDS011;2153;47.744;10.580;2023-04-25T00:51:43;13.40;;;3.10;;
4278;SDS011;2153;47.744;10.580;2023-04-25T00:54:10;16.23;;;3.10;;
4278;SDS011;2153;47.744;10.580;2023-04-25T00:56:38;13.73;;;2.77;;
4278;SDS011;2153;47.744;10.580;2023-04-25T00:59:06;14.37;;;2.93;;
4278;SDS011;2153;47.744;10.580;2023-04-25T01:01:34;13.10;;;2.80;;
4278;SDS011;2153;47.744;10.580;2023-04-25T01:04:02;15.30;;;3.13;;
4278;SDS011;2153;47.744;10.580;2023-04-25T01:06:29;13.03;;;3.10;;
4278;SDS011;2153;47.744;10.580;2023-04-25T01:08:57;15.53;;;3.40;;
4278;SDS011;2153;47.744;10.580;2023-04-25T01:11:25;16.40;;;2.80;;
4278;SDS011;2153;47.744;10.580;2023-04-25T01:13:51;14.30;;;3.20;;
4278;SDS011;2153;47.744;10.580;2023-04-25T01:16:20;15.97;;;2.93;;
4278;SDS011;2153;47.744;10.580;2023-04-25T01:18:48;14.73;;;2.90;;
4278;SDS011;2153;47.744;10.580;2023-04-25T01:21:17;13.00;;;2.90;;
4278;SDS011;2153;47.744;10.580;2023-04-25T01:23:44;14.00;;;2.93;;
4278;SDS011;2153;47.744;10.580;2023-04-25T01:26:11;14.63;;;3.20;;
4278;SDS011;2153;47.744;10.580;2023-04-25T01:28:39;13.20;;;2.93;;
4278;SDS011;2153;47.744;10.580;2023-04-25T01:31:06;14.83;;;3.10;;
4278;SDS011;2153;47.744;10.580;2023-04-25T01:33:33;15.00;;;3.10;;
4278;SDS011;2153;47.744;10.580;2023-04-25T01:36:00;15.23;;;2.70;;
4278;SDS011;2153;47.744;10.580;2023-04-25T01:38:28;16.60;;;3.27;;
4278;SDS011;2153;47.744;10.580;2023-04-25T01:40:56;19.10;;;3.10;;
4278;SDS011;2153;47.744;10.580;2023-04-25T01:43:23;16.27;;;3.37;;
4278;SDS011;2153;47.744;10.580;2023-04-25T01:45:50;16.63;;;4.07;;
4278;SDS011;2153;47.744;10.580;2023-04-25T01:48:16;14.67;;;3.07;;
4278;SDS011;2153;47.744;10.580;2023-04-25T01:50:43;13.97;;;3.37;;
4278;SDS011;2153;47.744;10.580;2023-04-25T01:53:12;14.30;;;2.97;;
4278;SDS011;2153;47.744;10.580;2023-04-25T01:55:41;14.83;;;3.40;;
4278;SDS011;2153;47.744;10.580;2023-04-25T01:58:08;14.80;;;3.43;;
4278;SDS011;2153;47.744;10.580;2023-04-25T02:00:38;15.17;;;3.27;;
4278;SDS011;2153;47.744;10.580;2023-04-25T02:03:06;13.47;;;3.73;;
4278;SDS011;2153;47.744;10.580;2023-04-25T02:05:36;19.33;;;2.93;;
4278;SDS011;2153;47.744;10.580;2023-04-25T02:08:04;14.33;;;3.30;;
4278;SDS011;2153;47.744;10.580;2023-04-25T02:10:32;15.03;;;3.73;;
4278;SDS011;2153;47.744;10.580;2023-04-25T02:13:01;15.30;;;3.60;;
4278;SDS011;2153;47.744;10.580;2023-04-25T02:15:28;13.60;;;3.17;;
4278;SDS011;2153;47.744;10.580;2023-04-25T02:17:55;14.47;;;3.30;;
4278;SDS011;2153;47.744;10.580;2023-04-25T02:20:23;22.00;;;4.50;;
4278;SDS011;2153;47.744;10.580;2023-04-25T02:22:50;16.60;;;3.67;;
4278;SDS011;2153;47.744;10.580;2023-04-25T02:25:18;14.70;;;3.60;;
4278;SDS011;2153;47.744;10.580;2023-04-25T02:27:45;17.77;;;3.70;;
4278;SDS011;2153;47.744;10.580;2023-04-25T02:30:14;17.07;;;3.10;;
4278;SDS011;2153;47.744;10.580;2023-04-25T02:32:41;13.63;;;3.53;;
4278;SDS011;2153;47.744;10.580;2023-04-25T02:35:08;19.10;;;3.83;;
4278;SDS011;2153;47.744;10.580;2023-04-25T02:37:35;20.00;;;4.47;;
4278;SDS011;2153;47.744;10.580;2023-04-25T02:40:03;14.47;;;3.70;;
4278;SDS011;2153;47.744;10.580;2023-04-25T02:42:31;17.80;;;5.93;;
4278;SDS011;2153;47.744;10.580;2023-04-25T02:44:58;18.73;;;4.43;;
4278;SDS011;2153;47.744;10.580;2023-04-25T02:47:27;17.27;;;4.10;;
4278;SDS011;2153;47.744;10.580;2023-04-25T02:49:54;18.57;;;4.70;;
4278;SDS011;2153;47.744;10.580;2023-04-25T02:52:20;14.93;;;3.30;;
4278;SDS011;2153;47.744;10.580;2023-04-25T02:54:47;13.53;;;3.57;;
4278;SDS011;2153;47.744;10.580;2023-04-25T02:57:14;16.27;;;3.97;;
4278;SDS011;2153;47.744;10.580;2023-04-25T02:59:41;12.97;;;3.27;;
4278;SDS011;2153;47.744;10.580;2023-04-25T03:02:08;14.03;;;3.37;;
4278;SDS011;2153;47.744;10.580;2023-04-25T03:04:36;14.67;;;4.10;;
4278;SDS011;2153;47.744;10.580;2023-04-25T03:07:03;13.50;;;3.80;;
4278;SDS011;2153;47.744;10.580;2023-04-25T03:09:30;12.50;;;3.23;;
4278;SDS011;2153;47.744;10.580;2023-04-25T03:11:57;13.47;;;3.13;;
4278;SDS011;2153;47.744;10.580;2023-04-25T03:14:24;12.63;;;2.90;;
4278;SDS011;2153;47.744;10.580;2023-04-25T03:16:51;14.37;;;3.50;;
4278;SDS011;2153;47.744;10.580;2023-04-25T03:19:17;14.13;;;3.60;;
4278;SDS011;2153;47.744;10.580;2023-04-25T03:21:46;12.63;;;3.17;;
4278;SDS011;2153;47.744;10.580;2023-04-25T03:24:14;18.90;;;4.17;;
4278;SDS011;2153;47.744;10.580;2023-04-25T03:26:40;12.33;;;2.77;;
4278;SDS011;2153;47.744;10.580;2023-04-25T03:29:07;13.57;;;3.27;;
4278;SDS011;2153;47.744;10.580;2023-04-25T03:31:34;13.20;;;3.07;;
4278;SDS011;2153;47.744;10.580;2023-04-25T03:34:01;15.77;;;3.67;;
4278;SDS011;2153;47.744;10.580;2023-04-25T03:36:28;19.90;;;4.10;;
4278;SDS011;2153;47.744;10.580;2023-04-25T03:38:56;18.83;;;5.83;;
4278;SDS011;2153;47.744;10.580;2023-04-25T03:41:23;15.53;;;4.40;;
4278;SDS011;2153;47.744;10.580;2023-04-25T03:43:50;14.67;;;4.20;;
4278;SDS011;2153;47.744;10.580;2023-04-25T03:46:16;15.20;;;3.77;;
4278;SDS011;2153;47.744;10.580;2023-04-25T03:48:43;17.13;;;4.10;;
4278;SDS011;2153;47.744;10.580;2023-04-25T03:51:10;14.77;;;4.10;;
4278;SDS011;2153;47.744;10.580;2023-04-25T03:53:37;15.40;;;4.20;;
4278;SDS011;2153;47.744;10.580;2023-04-25T03:56:05;15.27;;;4.30;;
4278;SDS011;2153;47.744;10.580;2023-04-25T03:58:32;18.40;;;4.00;;
4278;SDS011;2153;47.744;10.580;2023-04-25T04:00:59;14.43;;;4.23;;
4278;SDS011;2153;47.744;10.580;2023-04-25T04:03:27;13.70;;;3.90;;
4278;SDS011;2153;47.744;10.580;2023-04-25T04:05:54;17.10;;;5.00;;
4278;SDS011;2153;47.744;10.580;2023-04-25T04:08:21;16.13;;;4.73;;
4278;SDS011;2153;47.744;10.580;2023-04-25T04:10:48;15.10;;;4.63;;
4278;SDS011;2153;47.744;10.580;2023-04-25T04:13:16;15.87;;;4.87;;
4278;SDS011;2153;47.744;10.580;2023-04-25T04:15:43;18.83;;;4.63;;
4278;SDS011;2153;47.744;10.580;2023-04-25T04:18:09;16.57;;;4.70;;
4278;SDS011;2153;47.744;10.580;2023-04-25T04:20:36;15.27;;;4.10;;
4278;SDS011;2153;47.744;10.580;2023-04-25T04:23:03;16.37;;;4.53;;
4278;SDS011;2153;47.744;10.580;2023-04-25T04:25:30;14.47;;;4.20;;
4278;SDS011;2153;47.744;10.580;2023-04-25T04:27:57;19.87;;;4.90;;
4278;SDS011;2153;47.744;10.580;2023-04-25T04:30:25;13.40;;;3.80;;
4278;SDS011;2153;47.744;10.580;2023-04-25T04:32:54;17.73;;;4.87;;
4278;SDS011;2153;47.744;10.580;2023-04-25T04:35:21;15.87;;;3.93;;
4278;SDS011;2153;47.744;10.580;2023-04-25T04:37:48;14.63;;;4.80;;
4278;SDS011;2153;47.744;10.580;2023-04-25T04:40:15;17.20;;;5.33;;
4278;SDS011;2153;47.744;10.580;2023-04-25T04:42:42;18.63;;;6.07;;
4278;SDS011;2153;47.744;10.580;2023-04-25T04:45:10;23.57;;;6.20;;
4278;SDS011;2153;47.744;10.580;2023-04-25T04:47:39;20.13;;;5.57;;
4278;SDS011;2153;47.744;10.580;2023-04-25T04:50:06;15.33;;;4.30;;
4278;SDS011;2153;47.744;10.580;2023-04-25T04:52:34;14.07;;;4.30;;
4278;SDS011;2153;47.744;10.580;2023-04-25T04:55:01;18.83;;;6.33;;
4278;SDS011;2153;47.744;10.580;2023-04-25T04:57:28;19.50;;;5.43;;
4278;SDS011;2153;47.744;10.580;2023-04-25T04:59:56;15.00;;;5.00;;
4278;SDS011;2153;47.744;10.580;2023-04-25T05:02:22;20.37;;;5.77;;
4278;SDS011;2153;47.744;10.580;2023-04-25T05:04:51;25.53;;;4.90;;
4278;SDS011;2153;47.744;10.580;2023-04-25T05:07:18;17.77;;;4.70;;
4278;SDS011;2153;47.744;10.580;2023-04-25T05:09:45;16.27;;;5.00;;
4278;SDS011;2153;47.744;10.580;2023-04-25T05:12:11;16.33;;;4.73;;
4278;SDS011;2153;47.744;10.580;2023-04-25T05:14:38;15.63;;;4.70;;
4278;SDS011;2153;47.744;10.580;2023-04-25T05:17:05;16.37;;;5.30;;
4278;SDS011;2153;47.744;10.580;2023-04-25T05:19:33;18.50;;;6.13;;
4278;SDS011;2153;47.744;10.580;2023-04-25T05:22:01;17.13;;;5.83;;
4278;SDS011;2153;47.744;10.580;2023-04-25T05:24:28;17.27;;;5.67;;
4278;SDS011;2153;47.744;10.580;2023-04-25T05:26:55;21.60;;;6.30;;
4278;SDS011;2153;47.744;10.580;2023-04-25T05:29:22;23.90;;;6.53;;
4278;SDS011;2153;47.744;10.580;2023-04-25T05:31:49;26.13;;;5.77;;
4278;SDS011;2153;47.744;10.580;2023-04-25T05:34:16;14.80;;;4.80;;
4278;SDS011;2153;47.744;10.580;2023-04-25T05:36:42;18.53;;;5.23;;
4278;SDS011;2153;47.744;10.580;2023-04-25T05:39:10;16.20;;;4.90;;
4278;SDS011;2153;47.744;10.580;2023-04-25T05:41:37;16.57;;;4.83;;
4278;SDS011;2153;47.744;10.580;2023-04-25T05:44:04;19.80;;;5.13;;
4278;SDS011;2153;47.744;10.580;2023-04-25T05:46:31;28.03;;;4.53;;
4278;SDS011;2153;47.744;10.580;2023-04-25T05:48:58;14.80;;;4.70;;
4278;SDS011;2153;47.744;10.580;2023-04-25T05:51:25;21.13;;;5.10;;
4278;SDS011;2153;47.744;10.580;2023-04-25T05:53:52;19.60;;;5.07;;
4278;SDS011;2153;47.744;10.580;2023-04-25T05:56:20;19.40;;;4.10;;
4278;SDS011;2153;47.744;10.580;2023-04-25T05:58:47;18.10;;;4.20;;
4278;SDS011;2153;47.744;10.580;2023-04-25T06:01:14;14.43;;;4.50;;
4278;SDS011;2153;47.744;10.580;2023-04-25T06:03:41;16.17;;;3.70;;
4278;SDS011;2153;47.744;10.580;2023-04-25T06:06:08;15.20;;;4.03;;
4278;SDS011;2153;47.744;10.580;2023-04-25T06:08:35;18.70;;;3.70;;
4278;SDS011;2153;47.744;10.580;2023-04-25T06:11:02;16.53;;;3.83;;
4278;SDS011;2153;47.744;10.580;2023-04-25T06:13:30;19.70;;;3.70;;
4278;SDS011;2153;47.744;10.580;2023-04-25T06:15:57;18.43;;;3.80;;
4278;SDS011;2153;47.744;10.580;2023-04-25T06:18:24;22.10;;;4.37;;
4278;SDS011;2153;47.744;10.580;2023-04-25T06:20:51;20.20;;;3.40;;
4278;SDS011;2153;47.744;10.580;2023-04-25T06:23:18;21.20;;;4.73;;
4278;SDS011;2153;47.744;10.580;2023-04-25T06:25:44;16.13;;;3.77;;
4278;SDS011;2153;47.744;10.580;2023-04-25T06:28:11;15.83;;;4.47;;
4278;SDS011;2153;47.744;10.580;2023-04-25T06:30:39;13.87;;;3.70;;
4278;SDS011;2153;47.744;10.580;2023-04-25T06:33:06;14.43;;;3.47;;
4278;SDS011;2153;47.744;10.580;2023-04-25T06:35:34;17.57;;;4.40;;
4278;SDS011;2153;47.744;10.580;2023-04-25T06:38:01;18.10;;;3.70;;
4278;SDS011;2153;47.744;10.580;2023-04-25T06:40:27;22.27;;;4.00;;
4278;SDS011;2153;47.744;10.580;2023-04-25T06:42:54;18.57;;;4.07;;
4278;SDS011;2153;47.744;10.580;2023-04-25T06:45:21;19.20;;;3.40;;
4278;SDS011;2153;47.744;10.580;2023-04-25T06:47:49;14.57;;;4.00;;
4278;SDS011;2153;47.744;10.580;2023-04-25T06:50:16;16.97;;;3.73;;
4278;SDS011;2153;47.744;10.580;2023-04-25T06:52:42;21.23;;;4.80;;
4278;SDS011;2153;47.744;10.580;2023-04-25T06:55:09;19.67;;;3.97;;
4278;SDS011;2153;47.744;10.580;2023-04-25T06:57:36;15.50;;;3.93;;
4278;SDS011;2153;47.744;10.580;2023-04-25T07:00:03;15.83;;;3.40;;
4278;SDS011;2153;47.744;10.580;2023-04-25T07:02:34;16.13;;;3.20;;
4278;SDS011;2153;47.744;10.580;2023-04-25T07:05:02;19.70;;;3.37;;
4278;SDS011;2153;47.744;10.580;2023-04-25T07:07:29;19.40;;;3.37;;
4278;SDS011;2153;47.744;10.580;2023-04-25T07:09:56;14.90;;;2.70;;
4278;SDS011;2153;47.744;10.580;2023-04-25T07:12:23;12.73;;;2.77;;
4278;SDS011;2153;47.744;10.580;2023-04-25T07:14:49;12.67;;;2.53;;
4278;SDS011;2153;47.744;10.580;2023-04-25T07:17:16;15.93;;;3.27;;
4278;SDS011;2153;47.744;10.580;2023-04-25T07:19:43;16.63;;;2.50;;
4278;SDS011;2153;47.744;10.580;2023-04-25T07:22:11;22.87;;;2.67;;
4278;SDS011;2153;47.744;10.580;2023-04-25T07:24:38;18.83;;;2.53;;
4278;SDS011;2153;47.744;10.580;2023-04-25T07:27:05;18.90;;;3.27;;
4278;SDS011;2153;47.744;10.580;2023-04-25T07:29:31;17.80;;;3.00;;
4278;SDS011;2153;47.744;10.580;2023-04-25T07:32:02;20.10;;;2.80;;
4278;SDS011;2153;47.744;10.580;2023-04-25T07:34:28;15.17;;;3.13;;
4278;SDS011;2153;47.744;10.580;2023-04-25T07:36:57;15.90;;;2.70;;
4278;SDS011;2153;47.744;10.580;2023-04-25T07:39:25;17.60;;;3.00;;
4278;SDS011;2153;47.744;10.580;2023-04-25T07:41:52;16.80;;;2.83;;
4278;SDS011;2153;47.744;10.580;2023-04-25T07:44:19;16.60;;;3.37;;
4278;SDS011;2153;47.744;10.580;2023-04-25T07:46:46;14.70;;;3.10;;
4278;SDS011;2153;47.744;10.580;2023-04-25T07:49:13;13.50;;;2.97;;
4278;SDS011;2153;47.744;10.580;2023-04-25T07:51:39;14.00;;;2.57;;
4278;SDS011;2153;47.744;10.580;2023-04-25T07:54:08;16.80;;;3.60;;
4278;SDS011;2153;47.744;10.580;2023-04-25T07:56:36;17.20;;;2.67;;
4278;SDS011;2153;47.744;10.580;2023-04-25T07:59:03;14.83;;;2.37;;
4278;SDS011;2153;47.744;10.580;2023-04-25T08:01:30;17.83;;;2.50;;
4278;SDS011;2153;47.744;10.580;2023-04-25T08:03:57;14.37;;;2.83;;
4278;SDS011;2153;47.744;10.580;2023-04-25T08:06:23;14.23;;;2.47;;
4278;SDS011;2153;47.744;10.580;2023-04-25T08:08:50;15.80;;;2.30;;
4278;SDS011;2153;47.744;10.580;2023-04-25T08:11:17;14.37;;;2.43;;
4278;SDS011;2153;47.744;10.580;2023-04-25T08:13:45;17.03;;;2.60;;
4278;SDS011;2153;47.744;10.580;2023-04-25T08:16:12;14.67;;;2.00;;
4278;SDS011;2153;47.744;10.580;2023-04-25T08:18:39;16.57;;;2.53;;
4278;SDS011;2153;47.744;10.580;2023-04-25T08:21:05;13.40;;;2.30;;
4278;SDS011;2153;47.744;10.580;2023-04-25T08:23:33;13.50;;;2.50;;
4278;SDS011;2153;47.744;10.580;2023-04-25T08:26:00;17.80;;;3.10;;
4278;SDS011;2153;47.744;10.580;2023-04-25T08:28:28;11.77;;;2.00;;
4278;SDS011;2153;47.744;10.580;2023-04-25T08:30:56;12.30;;;2.00;;
4278;SDS011;2153;47.744;10.580;2023-04-25T08:33:23;12.43;;;2.07;;
4278;SDS011;2153;47.744;10.580;2023-04-25T08:35:50;15.57;;;3.37;;
4278;SDS011;2153;47.744;10.580;2023-04-25T08:38:16;15.97;;;3.63;;
4278;SDS011;2153;47.744;10.580;2023-04-25T08:40:44;15.00;;;2.10;;
4278;SDS011;2153;47.744;10.580;2023-04-25T08:43:15;15.67;;;2.10;;
4278;SDS011;2153;47.744;10.580;2023-04-25T08:45:44;12.20;;;2.60;;
4278;SDS011;2153;47.744;10.580;2023-04-25T08:48:13;12.97;;;2.30;;
4278;SDS011;2153;47.744;10.580;2023-04-25T08:50:45;14.97;;;2.20;;
4278;SDS011;2153;47.744;10.580;2023-04-25T08:53:15;17.57;;;2.27;;
4278;SDS011;2153;47.744;10.580;2023-04-25T08:55:44;13.07;;;2.33;;
4278;SDS011;2153;47.744;10.580;2023-04-25T08:58:12;11.67;;;2.03;;
4278;SDS011;2153;47.744;10.580;2023-04-25T09:00:39;15.77;;;2.37;;
4278;SDS011;2153;47.744;10.580;2023-04-25T09:03:06;13.10;;;2.20;;
4278;SDS011;2153;47.744;10.580;2023-04-25T09:05:34;14.30;;;2.40;;
4278;SDS011;2153;47.744;10.580;2023-04-25T09:08:01;14.80;;;2.27;;
4278;SDS011;2153;47.744;10.580;2023-04-25T09:10:28;18.53;;;2.40;;
4278;SDS011;2153;47.744;10.580;2023-04-25T09:13:05;14.10;;;2.33;;
4278;SDS011;2153;47.744;10.580;2023-04-25T09:15:33;13.97;;;2.20;;
4278;SDS011;2153;47.744;10.580;2023-04-25T09:18:13;13.00;;;2.27;;
4278;SDS011;2153;47.744;10.580;2023-04-25T09:20:49;12.70;;;2.30;;
4278;SDS011;2153;47.744;10.580;2023-04-25T09:23:15;12.80;;;2.10;;
4278;SDS011;2153;47.744;10.580;2023-04-25T09:25:44;15.47;;;2.10;;
4278;SDS011;2153;47.744;10.580;2023-04-25T09:28:13;12.70;;;2.07;;
4278;SDS011;2153;47.744;10.580;2023-04-25T09:30:41;12.80;;;2.00;;
4278;SDS011;2153;47.744;10.580;2023-04-25T09:33:10;15.07;;;2.40;;
4278;SDS011;2153;47.744;10.580;2023-04-25T09:35:37;12.30;;;1.73;;
4278;SDS011;2153;47.744;10.580;2023-04-25T09:38:10;15.03;;;1.63;;
4278;SDS011;2153;47.744;10.580;2023-04-25T09:40:39;16.50;;;2.10;;
4278;SDS011;2153;47.744;10.580;2023-04-25T09:43:09;11.03;;;1.60;;
4278;SDS011;2153;47.744;10.580;2023-04-25T09:45:42;12.63;;;1.70;;
4278;SDS011;2153;47.744;10.580;2023-04-25T09:48:10;11.37;;;1.70;;
4278;SDS011;2153;47.744;10.580;2023-04-25T09:50:37;12.27;;;2.00;;
4278;SDS011;2153;47.744;10.580;2023-04-25T09:53:05;19.80;;;2.00;;
4278;SDS011;2153;47.744;10.580;2023-04-25T09:55:34;23.20;;;2.10;;
4278;SDS011;2153;47.744;10.580;2023-04-25T09:58:04;14.50;;;1.93;;
4278;SDS011;2153;47.744;10.580;2023-04-25T10:00:32;12.20;;;2.13;;
4278;SDS011;2153;47.744;10.580;2023-04-25T10:03:00;12.00;;;2.00;;
4278;SDS011;2153;47.744;10.580;2023-04-25T10:05:30;11.83;;;2.10;;
4278;SDS011;2153;47.744;10.580;2023-04-25T10:07:58;13.30;;;2.27;;
4278;SDS011;2153;47.744;10.580;2023-04-25T10:10:28;13.17;;;2.17;;
4278;SDS011;2153;47.744;10.580;2023-04-25T10:13:02;16.83;;;2.17;;
4278;SDS011;2153;47.744;10.580;2023-04-25T10:15:34;12.47;;;1.70;;
4278;SDS011;2153;47.744;10.580;2023-04-25T10:18:02;12.47;;;2.00;;
4278;SDS011;2153;47.744;10.580;2023-04-25T10:20:29;14.27;;;2.83;;
4278;SDS011;2153;47.744;10.580;2023-04-25T10:22:57;14.23;;;2.57;;
4278;SDS011;2153;47.744;10.580;2023-04-25T10:25:29;12.80;;;2.40;;
4278;SDS011;2153;47.744;10.580;2023-04-25T10:27:57;12.87;;;1.90;;
4278;SDS011;2153;47.744;10.580;2023-04-25T10:30:27;11.83;;;1.93;;
4278;SDS011;2153;47.744;10.580;2023-04-25T10:32:54;13.83;;;2.17;;
4278;SDS011;2153;47.744;10.580;2023-04-25T10:35:24;13.47;;;1.70;;
4278;SDS011;2153;47.744;10.580;2023-04-25T10:40:40;11.20;;;1.60;;
4278;SDS011;2153;47.744;10.580;2023-04-25T10:46:04;10.73;;;1.43;;
4278;SDS011;2153;47.744;10.580;2023-04-25T10:48:43;12.00;;;1.90;;
4278;SDS011;2153;47.744;10.580;2023-04-25T10:51:15;10.57;;;1.30;;
4278;SDS011;2153;47.744;10.580;2023-04-25T10:53:43;10.80;;;1.30;;
4278;SDS011;2153;47.744;10.580;2023-04-25T10:56:11;15.67;;;1.70;;
4278;SDS011;2153;47.744;10.580;2023-04-25T10:58:43;10.83;;;1.30;;
4278;SDS011;2153;47.744;10.580;2023-04-25T11:01:11;10.80;;;1.37;;
4278;SDS011;2153;47.744;10.580;2023-04-25T11:03:40;12.50;;;1.20;;
4278;SDS011;2153;47.744;10.580;2023-04-25T11:06:09;11.10;;;1.10;;
4278;SDS011;2153;47.744;10.580;2023-04-25T11:08:47;10.80;;;1.30;;
4278;SDS011;2153;47.744;10.580;2023-04-25T11:11:16;10.20;;;1.03;;
4278;SDS011;2153;47.744;10.580;2023-04-25T11:13:43;10.50;;;0.93;;
4278;SDS011;2153;47.744;10.580;2023-04-25T11:16:14;11.53;;;1.77;;
4278;SDS011;2153;47.744;10.580;2023-04-25T11:18:41;12.00;;;2.00;;
4278;SDS011;2153;47.744;10.580;2023-04-25T11:21:08;13.70;;;2.30;;
4278;SDS011;2153;47.744;10.580;2023-04-25T11:23:35;12.60;;;2.30;;
4278;SDS011;2153;47.744;10.580;2023-04-25T11:26:02;10.30;;;1.10;;
4278;SDS011;2153;47.744;10.580;2023-04-25T11:28:30;10.70;;;1.10;;
4278;SDS011;2153;47.744;10.580;2023-04-25T11:30:57;10.00;;;1.03;;
4278;SDS011;2153;47.744;10.580;2023-04-25T11:33:25;9.90;;;0.80;;
4278;SDS011;2153;47.744;10.580;2023-04-25T11:35:53;10.57;;;1.00;;
4278;SDS011;2153;47.744;10.580;2023-04-25T11:38:21;10.37;;;1.00;;
4278;SDS011;2153;47.744;10.580;2023-04-25T11:40:49;10.67;;;1.20;;
4278;SDS011;2153;47.744;10.580;2023-04-25T11:43:17;10.77;;;1.30;;
4278;SDS011;2153;47.744;10.580;2023-04-25T11:45:46;10.27;;;1.10;;
4278;SDS011;2153;47.744;10.580;2023-04-25T11:48:13;10.30;;;1.13;;
4278;SDS011;2153;47.744;10.580;2023-04-25T11:50:42;10.07;;;0.90;;
4278;SDS011;2153;47.744;10.580;2023-04-25T11:53:09;10.83;;;0.97;;
4278;SDS011;2153;47.744;10.580;2023-04-25T11:55:36;10.50;;;1.30;;
4278;SDS011;2153;47.744;10.580;2023-04-25T11:58:03;10.07;;;0.90;;
4278;SDS011;2153;47.744;10.580;2023-04-25T12:00:31;12.87;;;1.20;;
4278;SDS011;2153;47.744;10.580;2023-04-25T12:02:58;11.23;;;1.07;;
4278;SDS011;2153;47.744;10.580;2023-04-25T12:05:26;9.90;;;0.70;;
4278;SDS011;2153;47.744;10.580;2023-04-25T12:07:56;9.83;;;0.70;;
4278;SDS011;2153;47.744;10.580;2023-04-25T12:10:24;10.00;;;0.73;;
4278;SDS011;2153;47.744;10.580;2023-04-25T12:12:51;10.10;;;0.80;;
4278;SDS011;2153;47.744;10.580;2023-04-25T12:15:23;10.43;;;0.80;;
4278;SDS011;2153;47.744;10.580;2023-04-25T12:17:51;10.30;;;0.80;;
4278;SDS011;2153;47.744;10.580;2023-04-25T12:20:20;11.30;;;1.30;;
4278;SDS011;2153;47.744;10.580;2023-04-25T12:22:50;10.23;;;1.00;;
4278;SDS011;2153;47.744;10.580;2023-04-25T12:25:38;10.43;;;1.03;;
4278;SDS011;2153;47.744;10.580;2023-04-25T12:28:13;9.80;;;0.80;;
4278;SDS011;2153;47.744;10.580;2023-04-25T12:30:53;9.97;;;0.90;;
4278;SDS011;2153;47.744;10.580;2023-04-25T12:33:24;10.20;;;1.00;;
4278;SDS011;2153;47.744;10.580;2023-04-25T12:35:52;9.70;;;0.80;;
4278;SDS011;2153;47.744;10.580;2023-04-25T12:38:22;12.20;;;1.93;;
4278;SDS011;2153;47.744;10.580;2023-04-25T12:40:51;9.60;;;0.70;;
4278;SDS011;2153;47.744;10.580;2023-04-25T12:43:18;12.70;;;1.10;;
4278;SDS011;2153;47.744;10.580;2023-04-25T12:45:47;10.93;;;1.30;;
4278;SDS011;2153;47.744;10.580;2023-04-25T12:48:15;10.60;;;1.10;;
4278;SDS011;2153;47.744;10.580;2023-04-25T12:50:41;10.37;;;1.23;;
4278;SDS011;2153;47.744;10.580;2023-04-25T12:53:08;10.30;;;1.10;;
4278;SDS011;2153;47.744;10.580;2023-04-25T12:55:36;11.63;;;1.60;;
4278;SDS011;2153;47.744;10.580;2023-04-25T12:58:04;11.57;;;1.70;;
4278;SDS011;2153;47.744;10.580;2023-04-25T13:00:31;10.40;;;0.93;;
4278;SDS011;2153;47.744;10.580;2023-04-25T13:02:58;10.60;;;1.40;;
4278;SDS011;2153;47.744;10.580;2023-04-25T13:05:25;10.10;;;1.10;;
4278;SDS011;2153;47.744;10.580;2023-04-25T13:07:52;10.30;;;1.40;;
4278;SDS011;2153;47.744;10.580;2023-04-25T13:10:18;10.37;;;1.40;;
4278;SDS011;2153;47.744;10.580;2023-04-25T13:12:46;10.40;;;1.50;;
4278;SDS011;2153;47.744;10.580;2023-04-25T13:15:14;11.00;;;1.93;;
4278;SDS011;2153;47.744;10.580;2023-04-25T13:17:41;10.40;;;1.50;;
4278;SDS011;2153;47.744;10.580;2023-04-25T13:20:08;11.77;;;1.70;;
4278;SDS011;2153;47.744;10.580;2023-04-25T13:22:37;11.23;;;1.60;;
4278;SDS011;2153;47.744;10.580;2023-04-25T13:25:04;11.53;;;1.97;;
4278;SDS011;2153;47.744;10.580;2023-04-25T13:27:33;10.43;;;1.70;;
4278;SDS011;2153;47.744;10.580;2023-04-25T13:30:01;11.40;;;2.00;;
4278;SDS011;2153;47.744;10.580;2023-04-25T13:32:33;10.60;;;1.90;;
4278;SDS011;2153;47.744;10.580;2023-04-25T13:35:01;12.07;;;2.37;;
4278;SDS011;2153;47.744;10.580;2023-04-25T13:37:28;10.77;;;1.80;;
4278;SDS011;2153;47.744;10.580;2023-04-25T13:39:57;11.10;;;1.80;;
4278;SDS011;2153;47.744;10.580;2023-04-25T13:42:24;10.57;;;1.67;;
4278;SDS011;2153;47.744;10.580;2023-04-25T13:44:51;11.07;;;1.43;;
4278;SDS011;2153;47.744;10.580;2023-04-25T13:47:18;15.40;;;2.50;;
4278;SDS011;2153;47.744;10.580;2023-04-25T13:49:46;11.10;;;1.80;;
4278;SDS011;2153;47.744;10.580;2023-04-25T13:52:13;10.27;;;1.30;;
4278;SDS011;2153;47.744;10.580;2023-04-25T13:54:40;10.13;;;1.20;;
4278;SDS011;2153;47.744;10.580;2023-04-25T13:57:06;11.20;;;1.63;;
4278;SDS011;2153;47.744;10.580;2023-04-25T13:59:33;10.50;;;1.50;;
4278;SDS011;2153;47.744;10.580;2023-04-25T14:02:00;10.43;;;1.33;;
4278;SDS011;2153;47.744;10.580;2023-04-25T14:04:27;11.27;;;1.40;;
4278;SDS011;2153;47.744;10.580;2023-04-25T14:06:56;10.30;;;1.30;;
4278;SDS011;2153;47.744;10.580;2023-04-25T14:09:23;10.13;;;1.10;;
4278;SDS011;2153;47.744;10.580;2023-04-25T14:11:50;10.33;;;1.40;;
4278;SDS011;2153;47.744;10.580;2023-04-25T14:14:17;10.50;;;1.50;;
4278;SDS011;2153;47.744;10.580;2023-04-25T14:16:44;10.33;;;1.30;;
4278;SDS011;2153;47.744;10.580;2023-04-25T14:19:13;11.80;;;2.20;;
4278;SDS011;2153;47.744;10.580;2023-04-25T14:21:39;14.57;;;4.23;;
4278;SDS011;2153;47.744;10.580;2023-04-25T14:24:08;13.60;;;3.30;;
4278;SDS011;2153;47.744;10.580;2023-04-25T14:26:35;12.73;;;1.30;;
4278;SDS011;2153;47.744;10.580;2023-04-25T14:29:03;9.70;;;0.80;;
4278;SDS011;2153;47.744;10.580;2023-04-25T14:31:31;10.50;;;0.90;;
4278;SDS011;2153;47.744;10.580;2023-04-25T14:33:58;10.53;;;1.30;;
4278;SDS011;2153;47.744;10.580;2023-04-25T14:36:24;10.20;;;0.97;;
4278;SDS011;2153;47.744;10.580;2023-04-25T14:38:52;12.10;;;2.00;;
4278;SDS011;2153;47.744;10.580;2023-04-25T14:41:20;10.60;;;1.43;;
4278;SDS011;2153;47.744;10.580;2023-04-25T14:43:48;10.63;;;1.23;;
4278;SDS011;2153;47.744;10.580;2023-04-25T14:46:15;11.60;;;1.40;;
4278;SDS011;2153;47.744;10.580;2023-04-25T14:48:42;10.47;;;1.00;;
4278;SDS011;2153;47.744;10.580;2023-04-25T14:51:09;10.00;;;0.70;;
4278;SDS011;2153;47.744;10.580;2023-04-25T14:53:35;10.30;;;0.80;;
4278;SDS011;2153;47.744;10.580;2023-04-25T14:56:02;12.40;;;0.90;;